Home   Weather   Russia   Elista   Past weeks
Flag for Russia

Past Weather in Elista, Russia — Yesterday and Last 2 Weeks

Currently: 84 °F. Clear. (Weather station: Elista Airport, Russia). See more current weather

Past Weather in Elista — Graph

°F

Elista Temperature Yesterday

Maximum temperature yesterday: 93 °F (at 4:30 pm)
Minimum temperature yesterday: 66 °F (at 4:00 am)
Average temperature yesterday: 81 °F

High & Low Weather Summary for the Past Weeks

 TemperatureHumidityPressure
High97 °F (Aug 2, 3:00 pm)88% (Jul 28, 4:30 am)30.04 "Hg (Jul 28, 4:30 am)
Low63 °F (Jul 28, 4:00 am)9% (Aug 7, 3:30 pm)29.74 "Hg (Jul 26, 7:00 pm)
Average81 °F39%29.90 "Hg
* Reported Jul 26 7:00 pm — Aug 10 7:00 pm, Elista. Weather by CustomWeather, © 2022

Note: Actual official high and low records may vary slightly from our data, if they occured in-between our weather recording intervals... More about our weather records

Elista Weather History for the Previous 24 Hours

Scroll right to see more
 ConditionsComfort  
Time TempWeatherWind HumidityBarometerVisibility
7:00 pm
Wed, Aug 10
90 °FSunny.10 mph20%29.86 "HgN/A
6:00 pm91 °FHot.15 mph16%29.86 "HgN/A
5:00 pm93 °FExtremely hot.17 mph15%29.86 "HgN/A
4:30 pm95 °FSunny.17 mph15%29.86 "Hg10 mi
4:00 pm95 °FPassing clouds.17 mph14%29.86 "HgN/A
3:30 pm95 °FSunny.17 mph14%29.86 "Hg10 mi
3:00 pm95 °FSunny.17 mph14%29.86 "Hg10 mi
2:00 pm95 °FSunny.15 mph14%29.89 "Hg10 mi
1:00 pm93 °FPassing clouds.20 mph15%29.89 "HgN/A
12:00 pm91 °FSunny.17 mph16%29.92 "Hg10 mi
11:30 am93 °FPassing clouds.15 mph15%29.92 "HgN/A
11:00 am91 °FPassing clouds.13 mph16%29.95 "HgN/A
10:00 am90 °FSunny.13 mph16%29.95 "Hg10 mi
9:00 am88 °FPassing clouds.8 mph19%29.95 "HgN/A
8:30 am84 °FSunny.10 mph22%29.98 "Hg10 mi
8:00 am81 °FPleasantly warm.8 mph24%29.95 "HgN/A
7:30 am79 °FPleasantly warm.8 mph26%29.98 "HgN/A
7:00 am77 °FPleasantly warm.8 mph28%29.98 "HgN/A
6:30 am75 °FMild.6 mph31%29.98 "HgN/A
6:00 am72 °FMild.6 mph33%29.98 "HgN/A
5:30 am68 °FMild.6 mph38%29.95 "HgN/A
5:00 am68 °FMild.6 mph35%29.95 "HgN/A
4:30 am72 °FClear.6 mph31%29.95 "HgN/A
4:00 am72 °FMild.3 mph31%29.95 "HgN/A
2:30 am70 °FClear.1 mph33%29.95 "HgN/A
2:00 am75 °FMild.3 mph27%29.95 "HgN/A
1:00 am73 °FMild.6 mph29%29.95 "HgN/A
12:00 am75 °FClear.6 mph27%29.98 "HgN/A
11:00 pm
Tue, Aug 9
75 °FMild.8 mph27%29.98 "HgN/A
10:30 pm75 °FClear.6 mph27%29.98 "HgN/A
10:00 pm77 °FClear.8 mph26%29.98 "HgN/A
9:30 pm77 °FClear.8 mph26%29.98 "HgN/A
9:00 pm77 °FClear.6 mph26%29.98 "HgN/A
8:00 pm81 °FClear.8 mph23%29.98 "HgN/A
Weather by CustomWeather, © 2022

See weather overview